KSCF/SCF METAR and TAF weather

Enter ICAO airport designator
Station Type Date Time Source
KSCF METAR 2018/12/13 19:55 UTC NOAA

KSCF 131955Z AUTO 16006KT 10SM CLR 19/16 A2970 RMK A01


Station Type Date Time Source
KSCF Decoded METAR 2018/12/13 19:55 UTC NOAA

South Marsh 268, LA, United States (KSCF) 29-06-57N 091-52-16W
Dec 13, 2018 - 02:55 PM EST / 2018.12.13 1955 UTC
Wind: from the SSE (160 degrees) at 7 MPH (6 KT):0
Visibility: 10 mile(s):0
Sky conditions: clear
Temperature: 66 F (19 C)
Dew Point: 60 F (16 C)
Relative Humidity: 82%
Pressure (altimeter): 29.7 in. Hg (1005 hPa)
ob: KSCF 131955Z AUTO 16006KT 10SM CLR 19/16 A2970 RMK A01
cycle: 20

Station Type Date Time Source
KSCF TAF UTC NOAA

Error!


Example: see airport list